This is the latest recevied weather packets stored in our database for station/object KB1JLI. If no packets are shown the sender has not sent any weather packets the latest 10 day(s).
| Time | Temp. | Humidity | Pressure | Rain* | Wind** | Luminosity | Snow |
|---|---|---|---|---|---|---|---|
| 1777998663 | 25.56° C | 42% | 1008.5 hPa | 0 mm | - | 671 W/m² | - |
| 1777998360 | 25.56° C | 41% | 1008.6 hPa | 0 mm | - | 679 W/m² | - |
| 1777998058 | 25.56° C | 42% | 1008.7 hPa | 0 mm | - | 680 W/m² | - |
| 1777997755 | 25.56° C | 43% | 1008.7 hPa | 0 mm | - | 743 W/m² | - |
| 1777997452 | 25.56° C | 42% | 1008.8 hPa | 0 mm | - | 558 W/m² | - |
| 1777997150 | 25° C | 44% | 1008.6 hPa | 0 mm | - | 719 W/m² | - |
| 1777996847 | 25.56° C | 43% | 1008.9 hPa | 0 mm | - | 676 W/m² | - |
| 1777996543 | 25° C | 44% | 1009.2 hPa | 0 mm | - | 674 W/m² | - |
| 1777996239 | 25° C | 46% | 1009.3 hPa | 0 mm | - | 669 W/m² | - |
| 1777995936 | 25° C | 44% | 1009.1 hPa | 0 mm | - | 656 W/m² | - |
| 1777995632 | 23.89° C | 46% | 1009.2 hPa | 0 mm | - | 651 W/m² | - |
| 1777995330 | 23.89° C | 47% | 1009.4 hPa | 0 mm | - | 685 W/m² | - |
| 1777995026 | 23.33° C | 49% | 1009.4 hPa | 0 mm | - | 750 W/m² | - |
| 1777994723 | 24.44° C | 46% | 1009.4 hPa | 0 mm | - | 655 W/m² | - |
| 1777994419 | 25° C | 46% | 1009.5 hPa | 0 mm | - | 634 W/m² | - |
| 1777994114 | 23.89° C | 47% | 1009.3 hPa | 0 mm | - | 685 W/m² | - |
| 1777993812 | 23.89° C | 48% | 1009.4 hPa | 0 mm | - | 621 W/m² | - |
| 1777993508 | 23.33° C | 49% | 1009.6 hPa | 0 mm | - | 599 W/m² | - |
| 1777993204 | 21.67° C | 51% | 1009.7 hPa | 0 mm | - | 609 W/m² | - |
| 1777992901 | 21.67° C | 51% | 1009.5 hPa | 0 mm | - | 695 W/m² | - |
| 1777992599 | 21.67° C | 52% | 1009.8 hPa | 0 mm | - | 265 W/m² | - |
| 1777992296 | 22.78° C | 53% | 1009.7 hPa | 0 mm | - | 297 W/m² | - |
| 1777991994 | 21.67° C | 54% | 1009.8 hPa | 0 mm | - | 156 W/m² | - |
| 1777991691 | 21.67° C | 53% | 1009.9 hPa | 0 mm | - | 165 W/m² | - |
| 1777991388 | 21.67° C | 53% | 1010 hPa | 0 mm | - | 653 W/m² | - |
* Rain latest hour (hover to see other rain measurements)
** Current wind speed in m/s (hover to see current wind gust speed)